createdAt,value
2022-11-04T00:01:40.999Z,14.10
2022-11-04T00:04:12.623Z,14.12
2022-11-04T00:06:41.366Z,13.98
2022-11-04T00:09:11.656Z,13.62
2022-11-04T00:11:57.869Z,13.63
2022-11-04T00:14:26.159Z,13.71
2022-11-04T00:17:11.925Z,13.93
2022-11-04T00:19:58.973Z,13.09
2022-11-04T00:22:44.426Z,13.72
2022-11-04T00:25:30.483Z,13.52
2022-11-04T00:28:27.559Z,13.47
2022-11-04T00:30:56.995Z,13.48
2022-11-04T00:33:27.113Z,13.61
2022-11-04T00:35:58.472Z,13.57
2022-11-04T00:38:27.363Z,13.39
2022-11-04T00:40:55.558Z,13.34
2022-11-04T00:43:23.812Z,13.43
2022-11-04T00:45:52.031Z,13.52
2022-11-04T00:48:20.293Z,13.54
2022-11-04T00:50:48.607Z,13.46
2022-11-04T00:53:18.234Z,13.43
2022-11-04T00:55:46.446Z,13.05
2022-11-04T00:58:14.722Z,13.45
2022-11-04T01:00:42.892Z,13.52
2022-11-04T01:03:11.288Z,13.42
2022-11-04T01:05:39.667Z,13.22
2022-11-04T01:08:07.944Z,13.13
2022-11-04T01:10:44.733Z,13.01
2022-11-04T01:13:13.402Z,13.44
2022-11-04T01:15:41.937Z,13.50
2022-11-04T01:18:10.294Z,13.46
2022-11-04T01:20:38.842Z,13.40
2022-11-04T01:23:07.154Z,13.43
2022-11-04T01:25:35.379Z,13.35
2022-11-04T01:28:05.107Z,13.38
2022-11-04T01:30:33.491Z,13.42
2022-11-04T01:33:01.767Z,13.12
2022-11-04T01:35:29.987Z,12.91
2022-11-04T01:37:59.599Z,12.93
2022-11-04T01:40:28.433Z,12.53
2022-11-04T01:42:56.658Z,12.28
2022-11-04T01:45:26.332Z,11.54
2022-11-04T01:48:02.424Z,11.88
2022-11-04T01:50:33.449Z,11.84
2022-11-04T01:53:08.228Z,11.92
2022-11-04T01:55:40.940Z,12.17
2022-11-04T01:58:12.296Z,11.49
2022-11-04T02:00:43.243Z,11.51
2022-11-04T02:03:16.615Z,11.85
2022-11-04T02:05:46.122Z,11.61
2022-11-04T02:08:16.705Z,11.70
2022-11-04T02:10:53.150Z,11.20
2022-11-04T02:13:20.585Z,11.70
2022-11-04T02:16:00.971Z,12.00
2022-11-04T02:18:53.804Z,11.97
2022-11-04T02:21:59.736Z,11.91
2022-11-04T02:24:48.969Z,12.09
2022-11-04T02:27:50.328Z,12.01
2022-11-04T02:30:21.066Z,12.09
2022-11-04T02:33:05.133Z,11.89
2022-11-04T02:35:44.615Z,12.18
2022-11-04T02:38:19.978Z,12.28
2022-11-04T02:40:59.039Z,12.23
2022-11-04T02:43:34.446Z,12.17
2022-11-04T02:46:11.491Z,12.10
2022-11-04T02:48:45.913Z,11.68
2022-11-04T02:51:19.911Z,11.72
2022-11-04T02:53:59.473Z,12.01
2022-11-04T02:56:28.650Z,12.20
2022-11-04T02:59:01.585Z,12.12
2022-11-04T03:01:37.550Z,11.97
2022-11-04T03:04:10.315Z,12.08
2022-11-04T03:06:40.386Z,11.83
2022-11-04T03:09:11.462Z,11.94
2022-11-04T03:11:43.502Z,12.04
2022-11-04T03:14:17.452Z,12.07
2022-11-04T03:16:49.749Z,12.16
2022-11-04T03:19:28.192Z,12.27
2022-11-04T03:22:01.829Z,12.07
2022-11-04T03:24:31.529Z,11.97
2022-11-04T03:27:04.011Z,11.95
2022-11-04T03:29:34.960Z,11.83
2022-11-04T03:32:12.870Z,11.83
2022-11-04T03:34:41.286Z,11.84
2022-11-04T03:37:10.573Z,11.45
2022-11-04T03:39:39.743Z,11.37
2022-11-04T03:42:21.362Z,11.74
2022-11-04T03:44:51.481Z,11.74
2022-11-04T03:47:23.657Z,11.17
2022-11-04T03:49:56.104Z,11.47
2022-11-04T03:52:24.871Z,11.37
2022-11-04T03:54:53.274Z,11.56
2022-11-04T03:57:45.402Z,11.56
2022-11-04T04:00:15.765Z,11.54
2022-11-04T04:02:56.320Z,11.56
2022-11-04T04:05:28.476Z,11.65
2022-11-04T04:08:07.836Z,11.46
2022-11-04T04:10:40.951Z,11.58
2022-11-04T04:13:22.794Z,11.56
2022-11-04T04:15:57.247Z,11.70
2022-11-04T04:18:35.393Z,11.45
2022-11-04T04:21:08.865Z,11.71
2022-11-04T04:23:57.161Z,11.49
2022-11-04T04:26:44.678Z,11.64
2022-11-04T04:29:13.553Z,11.59
2022-11-04T04:31:52.510Z,11.58
2022-11-04T04:34:24.787Z,11.45
2022-11-04T04:36:59.475Z,11.02
2022-11-04T04:39:52.162Z,11.62
2022-11-04T04:42:38.685Z,11.40
2022-11-04T04:45:08.155Z,11.22
2022-11-04T04:47:47.410Z,10.41
2022-11-04T04:50:20.258Z,10.31
2022-11-04T04:52:51.044Z,10.54
2022-11-04T04:55:20.006Z,10.24
2022-11-04T04:57:48.275Z,10.09
2022-11-04T05:00:18.950Z,10.02
2022-11-04T05:02:47.894Z,10.12
2022-11-04T05:05:18.525Z,10.13
2022-11-04T05:07:46.852Z,10.05
2022-11-04T05:10:17.542Z,10.29
2022-11-04T05:13:03.701Z,10.13
2022-11-04T05:15:32.500Z,10.31
2022-11-04T05:18:02.485Z,10.03
2022-11-04T05:20:34.396Z,10.17
2022-11-04T05:23:02.809Z,10.17
2022-11-04T05:25:31.035Z,10.78
2022-11-04T05:28:01.492Z,10.46
2022-11-04T05:30:30.315Z,10.34
2022-11-04T05:33:01.782Z,9.80
2022-11-04T05:35:35.311Z,9.98
2022-11-04T05:38:03.776Z,9.30
2022-11-04T05:40:32.061Z,10.17
2022-11-04T05:43:01.055Z,10.47
2022-11-04T05:45:30.145Z,10.56
2022-11-04T05:48:02.109Z,11.17
2022-11-04T05:50:31.032Z,11.36
2022-11-04T05:53:01.177Z,11.20
2022-11-04T05:55:29.660Z,11.39
2022-11-04T05:57:59.477Z,11.66
2022-11-04T06:00:28.721Z,12.02
2022-11-04T06:02:58.459Z,11.68
2022-11-04T06:05:27.152Z,12.14
2022-11-04T06:07:55.717Z,12.56
2022-11-04T06:10:26.015Z,12.89
2022-11-04T06:12:54.298Z,13.27
2022-11-04T06:15:22.569Z,13.74
2022-11-04T06:17:50.873Z,13.92
2022-11-04T06:20:19.290Z,14.16
2022-11-04T06:22:47.529Z,14.27
2022-11-04T06:25:15.782Z,14.16
2022-11-04T06:27:45.449Z,14.74
2022-11-04T06:30:14.054Z,15.18
2022-11-04T06:32:42.310Z,15.44
2022-11-04T06:35:10.906Z,15.39
2022-11-04T06:37:39.348Z,15.48
2022-11-04T06:40:09.396Z,15.28
2022-11-04T06:42:37.623Z,15.18
2022-11-04T06:45:08.362Z,15.63
2022-11-04T06:47:36.809Z,15.97
2022-11-04T06:50:05.931Z,15.81
2022-11-04T06:52:39.483Z,16.02
2022-11-04T06:55:11.188Z,16.31
2022-11-04T06:57:39.530Z,16.67
2022-11-04T07:00:10.579Z,17.17
2022-11-04T07:02:39.236Z,16.85
2022-11-04T07:05:08.441Z,16.94
2022-11-04T07:07:36.665Z,16.79
2022-11-04T07:10:05.340Z,16.72
2022-11-04T07:12:33.544Z,16.98
2022-11-04T07:15:01.876Z,17.15
2022-11-04T07:17:31.550Z,16.47
2022-11-04T07:19:59.770Z,17.56
2022-11-04T07:22:27.983Z,18.38
2022-11-04T07:24:56.253Z,18.14
2022-11-04T07:27:24.831Z,18.01
2022-11-04T07:29:53.102Z,18.82
2022-11-04T07:32:21.464Z,19.05
2022-11-04T07:34:51.063Z,19.44
2022-11-04T07:37:19.292Z,19.21
2022-11-04T07:39:47.588Z,18.77
2022-11-04T07:42:15.805Z,19.43
2022-11-04T07:44:44.091Z,19.82
2022-11-04T07:47:12.415Z,19.91
2022-11-04T07:49:40.758Z,20.18
2022-11-04T07:52:10.551Z,20.15
2022-11-04T07:54:39.793Z,20.75
2022-11-04T07:57:08.525Z,21.14
2022-11-04T07:59:36.851Z,21.71
2022-11-04T08:02:05.322Z,21.97
2022-11-04T08:04:33.805Z,22.42
2022-11-04T08:07:02.166Z,22.00
2022-11-04T08:09:32.486Z,22.03
2022-11-04T08:12:00.747Z,22.96
2022-11-04T08:14:28.990Z,23.23
2022-11-04T08:16:57.995Z,23.13
2022-11-04T08:19:26.301Z,24.26
2022-11-04T08:21:54.531Z,23.65
2022-11-04T08:24:22.954Z,23.38
2022-11-04T08:26:52.653Z,24.36
2022-11-04T08:29:21.015Z,25.35
2022-11-04T08:31:49.296Z,24.71
2022-11-04T08:34:18.503Z,25.42
2022-11-04T08:36:47.125Z,27.06
2022-11-04T08:39:16.039Z,27.06
2022-11-04T08:41:45.660Z,23.89
2022-11-04T08:44:15.961Z,24.81
2022-11-04T08:46:46.388Z,24.82
2022-11-04T08:49:20.706Z,24.52
2022-11-04T08:51:56.498Z,24.48
2022-11-04T08:54:25.066Z,24.69
2022-11-04T08:56:53.811Z,24.56
2022-11-04T08:59:25.136Z,24.68
2022-11-04T09:01:53.656Z,24.98
2022-11-04T09:04:22.102Z,25.12
2022-11-04T09:06:51.169Z,25.54
2022-11-04T09:09:20.271Z,25.78
2022-11-04T09:11:48.600Z,26.67
2022-11-04T09:14:17.948Z,26.77
2022-11-04T09:16:47.706Z,26.70
2022-11-04T09:19:16.232Z,27.13
2022-11-04T09:21:46.503Z,28.09
2022-11-04T09:24:14.726Z,27.10
2022-11-04T09:26:44.824Z,27.53
2022-11-04T09:29:13.075Z,27.01
2022-11-04T09:31:42.425Z,27.37
2022-11-04T09:34:12.188Z,26.61
2022-11-04T09:36:40.452Z,25.50
2022-11-04T09:39:08.699Z,26.79
2022-11-04T09:41:49.971Z,27.57
2022-11-04T09:44:25.008Z,28.05
2022-11-04T09:46:56.334Z,27.96
2022-11-04T09:49:28.552Z,28.09
2022-11-04T09:52:00.306Z,25.44
2022-11-04T09:54:33.654Z,27.39
2022-11-04T09:57:03.231Z,28.93
2022-11-04T09:59:34.565Z,29.89
2022-11-04T10:02:25.162Z,29.41
2022-11-04T10:05:08.246Z,30.74
2022-11-04T10:07:56.616Z,31.22
2022-11-04T10:10:32.716Z,31.94
2022-11-04T10:13:19.140Z,31.85
2022-11-04T10:16:01.976Z,30.79
2022-11-04T10:18:49.070Z,30.22
2022-11-04T10:21:30.409Z,29.73
2022-11-04T10:24:14.678Z,30.28
2022-11-04T10:26:47.255Z,29.78
2022-11-04T10:29:18.267Z,31.15
2022-11-04T10:31:49.271Z,31.58
2022-11-04T10:34:29.654Z,30.32
2022-11-04T10:36:59.615Z,30.61
2022-11-04T10:39:31.143Z,31.68
2022-11-04T10:41:59.663Z,32.73
2022-11-04T10:44:31.491Z,32.55
2022-11-04T10:47:15.092Z,31.24
2022-11-04T10:50:26.408Z,30.77
2022-11-04T10:52:44.592Z,30.04
2022-11-04T10:55:20.284Z,30.00
2022-11-04T10:57:48.686Z,30.58
2022-11-04T11:00:35.965Z,30.27
2022-11-04T11:03:04.446Z,31.21
2022-11-04T11:05:32.688Z,31.29
2022-11-04T11:08:02.837Z,31.40
2022-11-04T11:10:33.794Z,31.37
2022-11-04T11:13:04.841Z,31.37
2022-11-04T11:15:36.030Z,31.81
2022-11-04T11:18:16.309Z,32.15
2022-11-04T11:20:49.622Z,32.56
2022-11-04T11:23:43.636Z,32.90
2022-11-04T11:26:15.725Z,31.28
2022-11-04T11:28:58.452Z,31.13
2022-11-04T11:31:27.693Z,31.83
2022-11-04T11:33:59.233Z,32.64
2022-11-04T11:36:29.852Z,31.78
2022-11-04T11:39:04.274Z,31.77
2022-11-04T11:41:37.398Z,32.26
2022-11-04T11:44:19.611Z,33.34
2022-11-04T11:46:54.784Z,31.27
2022-11-04T11:49:29.018Z,32.83
2022-11-04T11:51:57.941Z,30.51
2022-11-04T11:54:34.895Z,31.74
2022-11-04T11:57:14.246Z,30.39
2022-11-04T12:02:42.852Z,32.33
2022-11-04T12:11:08.343Z,33.11
2022-11-04T12:13:43.219Z,33.49
2022-11-04T12:16:22.837Z,31.76
2022-11-04T12:19:05.828Z,32.05
2022-11-04T12:21:37.194Z,33.57
2022-11-04T12:24:18.167Z,33.69
2022-11-04T12:26:58.388Z,32.98
2022-11-04T12:29:41.346Z,33.05
2022-11-04T12:32:21.971Z,32.31
2022-11-04T12:35:05.654Z,31.64
2022-11-04T12:37:47.845Z,31.96
2022-11-04T12:40:22.495Z,30.98
2022-11-04T12:43:08.033Z,31.92
2022-11-04T12:45:50.532Z,31.33
2022-11-04T12:48:38.957Z,30.91
2022-11-04T12:51:16.956Z,30.74
2022-11-04T12:54:04.507Z,30.36
2022-11-04T12:56:38.731Z,31.48
2022-11-04T12:59:42.678Z,30.78
2022-11-04T13:02:23.185Z,30.50
2022-11-04T13:04:58.481Z,29.97
2022-11-04T13:07:34.981Z,30.36
2022-11-04T13:10:08.867Z,30.78
2022-11-04T13:12:41.807Z,29.25
2022-11-04T13:15:20.395Z,28.01
2022-11-04T13:17:52.022Z,27.89
2022-11-04T13:20:30.908Z,28.19
2022-11-04T13:23:03.639Z,27.10
2022-11-04T13:25:36.118Z,26.93
2022-11-04T13:28:05.282Z,27.26
2022-11-04T13:30:41.667Z,26.93
2022-11-04T13:33:18.824Z,27.69
2022-11-04T13:35:58.691Z,27.33
2022-11-04T13:38:33.115Z,27.53
2022-11-04T13:41:21.555Z,27.08
2022-11-04T13:43:54.908Z,26.16
2022-11-04T13:46:30.518Z,26.52
2022-11-04T13:49:05.998Z,26.64
2022-11-04T13:51:43.301Z,26.44
2022-11-04T13:54:28.596Z,26.67
2022-11-04T13:57:07.100Z,25.82
2022-11-04T13:59:36.235Z,25.55
2022-11-04T14:02:38.032Z,25.07
2022-11-04T14:05:40.532Z,24.60
2022-11-04T14:08:14.476Z,24.73
2022-11-04T14:10:59.400Z,25.36
2022-11-04T14:14:04.407Z,25.38
2022-11-04T14:16:42.119Z,25.23
2022-11-04T14:19:57.004Z,23.84
2022-11-04T14:22:36.120Z,23.85
2022-11-04T14:25:20.379Z,24.25
2022-11-04T14:27:50.650Z,23.28
2022-11-04T14:30:38.292Z,22.77
2022-11-04T14:33:09.676Z,22.96
2022-11-04T14:35:38.385Z,23.59
2022-11-04T14:38:26.231Z,23.12
2022-11-04T14:41:14.727Z,23.14
2022-11-04T14:43:46.222Z,23.30
2022-11-04T14:46:20.686Z,22.69
2022-11-04T14:48:53.608Z,22.86
2022-11-04T14:51:25.902Z,22.60
2022-11-04T14:54:01.515Z,22.25
2022-11-04T14:56:29.786Z,22.64
2022-11-04T14:59:00.302Z,22.36
2022-11-04T15:01:34.547Z,21.90
2022-11-04T15:04:12.734Z,20.93
2022-11-04T15:06:54.812Z,20.81
2022-11-04T15:09:26.769Z,21.20
2022-11-04T15:12:23.349Z,21.06
2022-11-04T15:14:52.530Z,21.58
2022-11-04T15:17:23.095Z,21.76
2022-11-04T15:19:53.517Z,21.16
2022-11-04T15:22:21.935Z,20.81
2022-11-04T15:24:52.115Z,20.91
2022-11-04T15:27:29.622Z,20.89
2022-11-04T15:29:59.301Z,20.70
2022-11-04T15:32:28.192Z,19.92
2022-11-04T15:34:57.631Z,19.28
2022-11-04T15:37:29.088Z,19.45
2022-11-04T15:40:00.277Z,19.83
2022-11-04T15:42:43.166Z,19.54
2022-11-04T15:45:31.603Z,19.59
2022-11-04T15:48:25.126Z,20.04
2022-11-04T15:51:03.397Z,20.10
2022-11-04T15:53:32.746Z,19.90
2022-11-04T15:56:03.105Z,19.47
2022-11-04T15:58:35.040Z,19.38
2022-11-04T16:01:03.368Z,19.38
2022-11-04T16:03:31.787Z,19.75
2022-11-04T16:06:05.810Z,19.33
2022-11-04T16:08:34.472Z,18.94
2022-11-04T16:11:17.576Z,18.58
2022-11-04T16:13:47.232Z,19.07
2022-11-04T16:16:26.551Z,18.83
2022-11-04T16:18:57.087Z,19.26
2022-11-04T16:21:31.029Z,19.66
2022-11-04T16:24:03.652Z,19.76
2022-11-04T16:26:39.673Z,19.74
2022-11-04T16:29:10.641Z,19.49
2022-11-04T16:31:40.360Z,19.64
2022-11-04T16:34:12.653Z,19.60
2022-11-04T16:36:41.148Z,19.53
2022-11-04T16:39:10.197Z,19.57
2022-11-04T16:41:41.881Z,19.49
2022-11-04T16:44:21.720Z,18.89
2022-11-04T16:46:50.418Z,18.97
2022-11-04T16:49:20.789Z,18.94
2022-11-04T16:51:52.060Z,19.03
2022-11-04T16:54:20.427Z,18.94
2022-11-04T16:56:50.323Z,18.09
2022-11-04T16:59:18.591Z,18.28
2022-11-04T17:01:47.266Z,18.49
2022-11-04T17:04:16.379Z,18.01
2022-11-04T17:06:46.439Z,17.94
2022-11-04T17:09:21.540Z,18.37
2022-11-04T17:11:51.273Z,18.40
2022-11-04T17:14:19.480Z,18.36
2022-11-04T17:16:47.854Z,17.98
2022-11-04T17:19:17.669Z,18.15
2022-11-04T17:21:49.074Z,18.25
2022-11-04T17:24:17.431Z,18.02
2022-11-04T17:26:45.860Z,17.36
2022-11-04T17:29:17.780Z,17.30
2022-11-04T17:31:46.578Z,17.04
2022-11-04T17:34:15.210Z,17.34
2022-11-04T17:36:46.320Z,17.31
2022-11-04T17:39:17.870Z,17.62
2022-11-04T17:42:03.928Z,17.71
2022-11-04T17:44:36.623Z,17.78
2022-11-04T17:47:05.378Z,17.76
2022-11-04T17:49:42.473Z,17.59
2022-11-04T17:52:11.085Z,17.53
2022-11-04T17:54:39.317Z,17.11
2022-11-04T17:57:08.120Z,16.98
2022-11-04T17:59:38.512Z,16.68
2022-11-04T18:02:07.398Z,16.16
2022-11-04T18:04:35.923Z,16.13
2022-11-04T18:07:05.510Z,15.44
2022-11-04T18:09:36.474Z,15.92
2022-11-04T18:12:22.470Z,15.87
2022-11-04T18:14:52.246Z,16.33
2022-11-04T18:17:24.650Z,16.37
2022-11-04T18:19:53.230Z,16.44
2022-11-04T18:22:21.776Z,16.52
2022-11-04T18:24:50.181Z,16.62
2022-11-04T18:27:18.899Z,16.40
2022-11-04T18:29:47.768Z,16.41
2022-11-04T18:32:17.530Z,15.87
2022-11-04T18:34:45.754Z,15.62
2022-11-04T18:37:14.079Z,15.64
2022-11-04T18:39:43.573Z,15.85
2022-11-04T18:42:12.523Z,15.61
2022-11-04T18:44:41.294Z,15.28
2022-11-04T18:47:09.510Z,15.71
2022-11-04T18:49:39.303Z,15.09
2022-11-04T18:52:07.757Z,15.29
2022-11-04T18:54:36.586Z,14.82
2022-11-04T18:57:05.439Z,15.70
2022-11-04T18:59:34.041Z,15.70
2022-11-04T19:02:03.400Z,15.62
2022-11-04T19:04:32.122Z,15.87
2022-11-04T19:07:01.834Z,15.30
2022-11-04T19:09:47.389Z,14.69
2022-11-04T19:12:34.177Z,15.00
2022-11-04T19:15:04.210Z,15.51
2022-11-04T19:17:32.450Z,14.92
2022-11-04T19:20:05.424Z,15.02
2022-11-04T19:22:38.240Z,15.07
2022-11-04T19:25:07.422Z,15.09
2022-11-04T19:27:35.851Z,15.27
2022-11-04T19:30:04.417Z,14.82
2022-11-04T19:32:32.753Z,15.51
2022-11-04T19:35:01.136Z,15.59
2022-11-04T19:37:29.519Z,14.75
2022-11-04T19:39:59.103Z,14.76
2022-11-04T19:42:45.022Z,14.77
2022-11-04T19:45:13.448Z,15.28
2022-11-04T19:47:42.763Z,14.80
2022-11-04T19:50:12.821Z,15.08
2022-11-04T19:52:41.152Z,14.94
2022-11-04T19:55:11.531Z,14.22
2022-11-04T19:57:40.256Z,14.43
2022-11-04T20:00:12.113Z,14.66
2022-11-04T20:02:40.754Z,15.16
2022-11-04T20:05:09.620Z,15.21
2022-11-04T20:07:39.498Z,14.85
2022-11-04T20:10:08.818Z,15.14
2022-11-04T20:12:56.291Z,14.29
2022-11-04T20:15:26.422Z,14.63
2022-11-04T20:17:54.773Z,14.86
2022-11-04T20:20:22.992Z,15.03
2022-11-04T20:22:51.294Z,15.16
2022-11-04T20:25:19.690Z,14.72
2022-11-04T20:27:49.443Z,15.46
2022-11-04T20:30:19.415Z,15.50
2022-11-04T20:32:47.766Z,15.56
2022-11-04T20:35:16.204Z,15.53
2022-11-04T20:37:44.655Z,15.18
2022-11-04T20:40:13.966Z,14.86
2022-11-04T20:42:47.973Z,14.80
2022-11-04T20:45:21.140Z,14.72
2022-11-04T20:47:49.544Z,14.82
2022-11-04T20:50:18.097Z,14.65
2022-11-04T20:52:46.377Z,14.53
2022-11-04T20:55:14.672Z,14.97
2022-11-04T20:57:45.897Z,13.85
2022-11-04T21:00:15.130Z,14.83
2022-11-04T21:02:44.975Z,14.66
2022-11-04T21:05:13.343Z,14.62
2022-11-04T21:07:41.697Z,14.33
2022-11-04T21:10:11.139Z,14.97
2022-11-04T21:12:39.419Z,15.33
2022-11-04T21:15:28.841Z,15.45
2022-11-04T21:17:58.483Z,15.53
2022-11-04T21:20:27.555Z,15.68
2022-11-04T21:22:55.834Z,15.77
2022-11-04T21:25:24.254Z,15.39
2022-11-04T21:27:52.449Z,15.13
2022-11-04T21:30:21.070Z,15.23
2022-11-04T21:32:49.347Z,14.44
2022-11-04T21:35:19.073Z,14.32
2022-11-04T21:37:47.333Z,14.70
2022-11-04T21:40:16.338Z,14.66
2022-11-04T21:42:44.783Z,14.93
2022-11-04T21:45:13.124Z,15.02
2022-11-04T21:47:41.327Z,15.04
2022-11-04T21:50:15.191Z,15.08
2022-11-04T21:52:48.087Z,15.09
2022-11-04T21:55:16.283Z,14.97
2022-11-04T21:57:44.479Z,15.00
2022-11-04T22:00:14.512Z,14.87
2022-11-04T22:02:43.755Z,14.93
2022-11-04T22:05:12.592Z,14.87
2022-11-04T22:07:58.777Z,14.75
2022-11-04T22:10:29.828Z,14.76
2022-11-04T22:12:58.126Z,14.58
2022-11-04T22:15:44.020Z,14.61
2022-11-04T22:18:12.916Z,14.73
2022-11-04T22:20:41.543Z,14.47
2022-11-04T22:23:10.162Z,13.96
2022-11-04T22:25:40.037Z,14.14
2022-11-04T22:28:08.607Z,14.40
2022-11-04T22:30:37.534Z,14.42
2022-11-04T22:33:06.227Z,14.29
2022-11-04T22:35:35.010Z,14.50
2022-11-04T22:38:03.494Z,14.41
2022-11-04T22:40:31.935Z,14.34
2022-11-04T22:43:01.808Z,14.32
2022-11-04T22:45:30.449Z,14.18
2022-11-04T22:47:58.714Z,14.17
2022-11-04T22:50:26.944Z,14.08
2022-11-04T22:52:55.291Z,13.94
2022-11-04T22:55:23.492Z,13.71
2022-11-04T22:57:51.781Z,13.93
2022-11-04T23:00:21.553Z,14.11
2022-11-04T23:02:50.056Z,14.08
2022-11-04T23:05:27.451Z,13.76
2022-11-04T23:07:56.901Z,13.59
2022-11-04T23:10:42.286Z,13.13
2022-11-04T23:13:28.838Z,13.14
2022-11-04T23:16:32.057Z,13.48
2022-11-04T23:19:01.014Z,13.64
2022-11-04T23:21:46.681Z,13.47
2022-11-04T23:24:34.905Z,13.56
2022-11-04T23:27:03.811Z,13.50
2022-11-04T23:29:49.636Z,13.62
2022-11-04T23:32:24.482Z,13.68
2022-11-04T23:35:21.576Z,13.60
2022-11-04T23:37:50.116Z,13.56
2022-11-04T23:40:18.887Z,13.28
2022-11-04T23:42:47.515Z,13.14
2022-11-04T23:45:33.388Z,13.56
2022-11-04T23:48:20.518Z,13.61
2022-11-04T23:51:06.452Z,13.69
2022-11-04T23:53:52.483Z,13.42
2022-11-04T23:56:38.567Z,12.77
2022-11-04T23:59:26.492Z,12.83
